sensor_id;sensor_type;location;lat;lon;timestamp;P1;durP1;ratioP1;P2;durP2;ratioP2
53718;SDS011;39616;48.872;9.390;2022-08-19T00:00:29;12.93;;;10.75;;
53718;SDS011;39616;48.872;9.390;2022-08-19T00:03:00;13.77;;;9.88;;
53718;SDS011;39616;48.872;9.390;2022-08-19T00:05:30;13.57;;;10.63;;
53718;SDS011;39616;48.872;9.390;2022-08-19T00:08:01;15.18;;;10.27;;
53718;SDS011;39616;48.872;9.390;2022-08-19T00:10:32;14.55;;;10.38;;
53718;SDS011;39616;48.872;9.390;2022-08-19T00:13:03;18.42;;;10.20;;
53718;SDS011;39616;48.872;9.390;2022-08-19T00:15:34;13.20;;;9.88;;
53718;SDS011;39616;48.872;9.390;2022-08-19T00:18:04;13.50;;;10.57;;
53718;SDS011;39616;48.872;9.390;2022-08-19T00:20:34;11.85;;;10.32;;
53718;SDS011;39616;48.872;9.390;2022-08-19T00:23:05;12.65;;;11.07;;
53718;SDS011;39616;48.872;9.390;2022-08-19T00:25:35;13.07;;;10.27;;
53718;SDS011;39616;48.872;9.390;2022-08-19T00:28:06;14.90;;;10.65;;
53718;SDS011;39616;48.872;9.390;2022-08-19T00:30:36;16.10;;;11.32;;
53718;SDS011;39616;48.872;9.390;2022-08-19T00:33:07;13.00;;;10.25;;
53718;SDS011;39616;48.872;9.390;2022-08-19T00:35:38;12.68;;;11.27;;
53718;SDS011;39616;48.872;9.390;2022-08-19T00:38:08;14.77;;;11.10;;
53718;SDS011;39616;48.872;9.390;2022-08-19T00:40:38;16.70;;;10.88;;
53718;SDS011;39616;48.872;9.390;2022-08-19T00:43:10;14.63;;;10.45;;
53718;SDS011;39616;48.872;9.390;2022-08-19T00:45:40;15.00;;;11.07;;
53718;SDS011;39616;48.872;9.390;2022-08-19T00:48:13;12.82;;;11.20;;
53718;SDS011;39616;48.872;9.390;2022-08-19T00:50:44;13.48;;;11.45;;
53718;SDS011;39616;48.872;9.390;2022-08-19T00:53:18;14.13;;;11.40;;
53718;SDS011;39616;48.872;9.390;2022-08-19T00:55:51;13.73;;;10.70;;
53718;SDS011;39616;48.872;9.390;2022-08-19T00:58:25;14.88;;;10.63;;
53718;SDS011;39616;48.872;9.390;2022-08-19T01:00:59;14.80;;;11.80;;
53718;SDS011;39616;48.872;9.390;2022-08-19T01:03:30;16.08;;;11.90;;
53718;SDS011;39616;48.872;9.390;2022-08-19T01:06:01;14.40;;;10.95;;
53718;SDS011;39616;48.872;9.390;2022-08-19T01:08:31;17.00;;;11.65;;
53718;SDS011;39616;48.872;9.390;2022-08-19T01:11:01;16.70;;;12.57;;
53718;SDS011;39616;48.872;9.390;2022-08-19T01:13:33;14.80;;;10.68;;
53718;SDS011;39616;48.872;9.390;2022-08-19T01:16:05;16.13;;;11.68;;
53718;SDS011;39616;48.872;9.390;2022-08-19T01:18:39;16.60;;;11.13;;
53718;SDS011;39616;48.872;9.390;2022-08-19T01:21:23;14.55;;;11.73;;
53718;SDS011;39616;48.872;9.390;2022-08-19T01:24:00;16.07;;;12.13;;
53718;SDS011;39616;48.872;9.390;2022-08-19T01:26:31;15.68;;;11.23;;
53718;SDS011;39616;48.872;9.390;2022-08-19T01:29:08;14.77;;;11.48;;
53718;SDS011;39616;48.872;9.390;2022-08-19T01:31:39;16.92;;;12.57;;
53718;SDS011;39616;48.872;9.390;2022-08-19T01:34:09;14.65;;;11.88;;
53718;SDS011;39616;48.872;9.390;2022-08-19T01:36:42;17.58;;;12.60;;
53718;SDS011;39616;48.872;9.390;2022-08-19T01:39:19;17.38;;;11.82;;
53718;SDS011;39616;48.872;9.390;2022-08-19T01:41:52;21.08;;;12.27;;
53718;SDS011;39616;48.872;9.390;2022-08-19T01:44:24;19.75;;;13.15;;
53718;SDS011;39616;48.872;9.390;2022-08-19T01:46:54;18.73;;;12.35;;
53718;SDS011;39616;48.872;9.390;2022-08-19T01:49:25;15.48;;;11.80;;
53718;SDS011;39616;48.872;9.390;2022-08-19T01:51:56;20.40;;;12.48;;
53718;SDS011;39616;48.872;9.390;2022-08-19T01:54:28;14.75;;;11.32;;
53718;SDS011;39616;48.872;9.390;2022-08-19T01:57:03;16.00;;;12.50;;
53718;SDS011;39616;48.872;9.390;2022-08-19T01:59:37;17.38;;;13.00;;
53718;SDS011;39616;48.872;9.390;2022-08-19T02:02:11;17.75;;;12.48;;
53718;SDS011;39616;48.872;9.390;2022-08-19T02:04:41;19.48;;;12.93;;
53718;SDS011;39616;48.872;9.390;2022-08-19T02:07:12;19.73;;;13.38;;
53718;SDS011;39616;48.872;9.390;2022-08-19T02:09:42;17.65;;;13.57;;
53718;SDS011;39616;48.872;9.390;2022-08-19T02:12:12;17.17;;;12.82;;
53718;SDS011;39616;48.872;9.390;2022-08-19T02:14:42;17.73;;;12.13;;
53718;SDS011;39616;48.872;9.390;2022-08-19T02:17:13;16.83;;;12.63;;
53718;SDS011;39616;48.872;9.390;2022-08-19T02:19:43;16.63;;;11.82;;
53718;SDS011;39616;48.872;9.390;2022-08-19T02:22:14;18.63;;;14.57;;
53718;SDS011;39616;48.872;9.390;2022-08-19T02:24:44;15.55;;;12.02;;
53718;SDS011;39616;48.872;9.390;2022-08-19T02:27:14;20.38;;;12.85;;
53718;SDS011;39616;48.872;9.390;2022-08-19T02:29:46;17.38;;;12.98;;
53718;SDS011;39616;48.872;9.390;2022-08-19T02:32:18;18.60;;;12.63;;
53718;SDS011;39616;48.872;9.390;2022-08-19T02:34:49;16.35;;;12.35;;
53718;SDS011;39616;48.872;9.390;2022-08-19T02:37:20;18.17;;;13.25;;
53718;SDS011;39616;48.872;9.390;2022-08-19T02:40:09;20.85;;;12.57;;
53718;SDS011;39616;48.872;9.390;2022-08-19T02:42:39;19.88;;;13.20;;
53718;SDS011;39616;48.872;9.390;2022-08-19T02:45:11;16.88;;;12.32;;
53718;SDS011;39616;48.872;9.390;2022-08-19T02:47:43;21.30;;;13.35;;
53718;SDS011;39616;48.872;9.390;2022-08-19T02:50:13;19.95;;;13.27;;
53718;SDS011;39616;48.872;9.390;2022-08-19T02:52:44;17.30;;;12.82;;
53718;SDS011;39616;48.872;9.390;2022-08-19T02:55:15;18.27;;;13.30;;
53718;SDS011;39616;48.872;9.390;2022-08-19T02:57:46;18.67;;;12.95;;
53718;SDS011;39616;48.872;9.390;2022-08-19T03:00:17;19.95;;;13.73;;
53718;SDS011;39616;48.872;9.390;2022-08-19T03:02:47;18.95;;;13.30;;
53718;SDS011;39616;48.872;9.390;2022-08-19T03:05:18;20.25;;;14.02;;
53718;SDS011;39616;48.872;9.390;2022-08-19T03:07:49;20.08;;;12.90;;
53718;SDS011;39616;48.872;9.390;2022-08-19T03:10:19;21.83;;;13.52;;
53718;SDS011;39616;48.872;9.390;2022-08-19T03:12:50;19.95;;;13.85;;
53718;SDS011;39616;48.872;9.390;2022-08-19T03:15:20;21.58;;;15.20;;
53718;SDS011;39616;48.872;9.390;2022-08-19T03:17:50;21.48;;;14.52;;
53718;SDS011;39616;48.872;9.390;2022-08-19T03:20:21;20.80;;;14.18;;
53718;SDS011;39616;48.872;9.390;2022-08-19T03:22:51;20.73;;;14.35;;
53718;SDS011;39616;48.872;9.390;2022-08-19T03:25:21;23.73;;;14.35;;
53718;SDS011;39616;48.872;9.390;2022-08-19T03:27:52;23.52;;;14.55;;
53718;SDS011;39616;48.872;9.390;2022-08-19T03:30:22;22.50;;;13.65;;
53718;SDS011;39616;48.872;9.390;2022-08-19T03:32:52;24.23;;;15.07;;
53718;SDS011;39616;48.872;9.390;2022-08-19T03:35:22;22.65;;;15.13;;
53718;SDS011;39616;48.872;9.390;2022-08-19T03:37:53;22.85;;;14.55;;
53718;SDS011;39616;48.872;9.390;2022-08-19T03:40:23;21.92;;;14.70;;
53718;SDS011;39616;48.872;9.390;2022-08-19T03:42:53;22.58;;;16.13;;
53718;SDS011;39616;48.872;9.390;2022-08-19T03:45:24;21.33;;;15.20;;
53718;SDS011;39616;48.872;9.390;2022-08-19T03:47:54;21.23;;;14.63;;
53718;SDS011;39616;48.872;9.390;2022-08-19T03:50:25;22.63;;;15.35;;
53718;SDS011;39616;48.872;9.390;2022-08-19T03:52:55;22.40;;;15.35;;
53718;SDS011;39616;48.872;9.390;2022-08-19T03:55:26;23.40;;;14.93;;
53718;SDS011;39616;48.872;9.390;2022-08-19T03:57:56;22.25;;;15.55;;
53718;SDS011;39616;48.872;9.390;2022-08-19T04:00:26;22.92;;;14.43;;
53718;SDS011;39616;48.872;9.390;2022-08-19T04:02:57;24.08;;;15.32;;
53718;SDS011;39616;48.872;9.390;2022-08-19T04:05:28;26.08;;;16.38;;
53718;SDS011;39616;48.872;9.390;2022-08-19T04:07:58;24.63;;;15.75;;
53718;SDS011;39616;48.872;9.390;2022-08-19T04:10:29;22.58;;;14.77;;
53718;SDS011;39616;48.872;9.390;2022-08-19T04:12:59;24.30;;;15.38;;
53718;SDS011;39616;48.872;9.390;2022-08-19T04:15:29;25.48;;;15.20;;
53718;SDS011;39616;48.872;9.390;2022-08-19T04:18:01;24.65;;;16.50;;
53718;SDS011;39616;48.872;9.390;2022-08-19T04:20:31;27.67;;;15.38;;
53718;SDS011;39616;48.872;9.390;2022-08-19T04:23:02;26.58;;;16.67;;
53718;SDS011;39616;48.872;9.390;2022-08-19T04:25:40;26.30;;;16.85;;
53718;SDS011;39616;48.872;9.390;2022-08-19T04:28:12;27.80;;;18.00;;
53718;SDS011;39616;48.872;9.390;2022-08-19T04:30:45;28.52;;;16.27;;
53718;SDS011;39616;48.872;9.390;2022-08-19T04:33:19;27.13;;;17.25;;
53718;SDS011;39616;48.872;9.390;2022-08-19T04:35:54;26.15;;;16.33;;
53718;SDS011;39616;48.872;9.390;2022-08-19T04:38:25;26.38;;;18.05;;
53718;SDS011;39616;48.872;9.390;2022-08-19T04:40:55;27.88;;;17.27;;
53718;SDS011;39616;48.872;9.390;2022-08-19T04:43:44;28.55;;;17.65;;
53718;SDS011;39616;48.872;9.390;2022-08-19T04:46:18;28.05;;;16.88;;
53718;SDS011;39616;48.872;9.390;2022-08-19T04:48:49;30.85;;;18.80;;
53718;SDS011;39616;48.872;9.390;2022-08-19T04:51:19;30.90;;;17.75;;
53718;SDS011;39616;48.872;9.390;2022-08-19T04:53:50;29.98;;;17.45;;
53718;SDS011;39616;48.872;9.390;2022-08-19T04:56:22;31.23;;;17.95;;
53718;SDS011;39616;48.872;9.390;2022-08-19T04:58:56;27.92;;;18.52;;
53718;SDS011;39616;48.872;9.390;2022-08-19T05:01:27;31.00;;;18.67;;
53718;SDS011;39616;48.872;9.390;2022-08-19T05:04:03;28.37;;;18.80;;
53718;SDS011;39616;48.872;9.390;2022-08-19T05:06:35;28.40;;;17.65;;
53718;SDS011;39616;48.872;9.390;2022-08-19T05:09:06;29.70;;;19.10;;
53718;SDS011;39616;48.872;9.390;2022-08-19T05:11:36;31.60;;;18.33;;
53718;SDS011;39616;48.872;9.390;2022-08-19T05:14:09;29.02;;;18.02;;
53718;SDS011;39616;48.872;9.390;2022-08-19T05:16:42;33.30;;;19.95;;
53718;SDS011;39616;48.872;9.390;2022-08-19T05:19:12;34.45;;;18.77;;
53718;SDS011;39616;48.872;9.390;2022-08-19T05:22:02;33.90;;;20.15;;
53718;SDS011;39616;48.872;9.390;2022-08-19T05:24:51;31.08;;;18.58;;
53718;SDS011;39616;48.872;9.390;2022-08-19T05:27:21;28.42;;;18.33;;
53718;SDS011;39616;48.872;9.390;2022-08-19T05:29:52;29.83;;;19.20;;
53718;SDS011;39616;48.872;9.390;2022-08-19T05:32:22;31.58;;;19.75;;
53718;SDS011;39616;48.872;9.390;2022-08-19T05:34:53;37.58;;;19.85;;
53718;SDS011;39616;48.872;9.390;2022-08-19T05:37:23;31.13;;;19.23;;
53718;SDS011;39616;48.872;9.390;2022-08-19T05:39:56;30.73;;;19.35;;
53718;SDS011;39616;48.872;9.390;2022-08-19T05:42:27;30.80;;;20.02;;
53718;SDS011;39616;48.872;9.390;2022-08-19T05:44:57;32.67;;;20.05;;
53718;SDS011;39616;48.872;9.390;2022-08-19T05:47:28;30.30;;;18.65;;
53718;SDS011;39616;48.872;9.390;2022-08-19T05:49:58;29.30;;;19.58;;
53718;SDS011;39616;48.872;9.390;2022-08-19T05:52:29;29.58;;;18.77;;
53718;SDS011;39616;48.872;9.390;2022-08-19T05:55:00;33.55;;;20.38;;
53718;SDS011;39616;48.872;9.390;2022-08-19T05:57:30;30.95;;;19.23;;
53718;SDS011;39616;48.872;9.390;2022-08-19T06:00:00;29.92;;;18.95;;
53718;SDS011;39616;48.872;9.390;2022-08-19T06:02:32;29.60;;;19.95;;
53718;SDS011;39616;48.872;9.390;2022-08-19T06:05:03;28.27;;;19.70;;
53718;SDS011;39616;48.872;9.390;2022-08-19T06:07:37;30.38;;;18.83;;
53718;SDS011;39616;48.872;9.390;2022-08-19T06:10:09;32.90;;;19.33;;
53718;SDS011;39616;48.872;9.390;2022-08-19T06:12:41;33.08;;;19.58;;
53718;SDS011;39616;48.872;9.390;2022-08-19T06:15:12;29.30;;;20.58;;
53718;SDS011;39616;48.872;9.390;2022-08-19T06:17:43;29.17;;;18.98;;
53718;SDS011;39616;48.872;9.390;2022-08-19T06:20:16;30.13;;;19.75;;
53718;SDS011;39616;48.872;9.390;2022-08-19T06:22:48;32.97;;;19.90;;
53718;SDS011;39616;48.872;9.390;2022-08-19T06:25:21;32.17;;;20.25;;
53718;SDS011;39616;48.872;9.390;2022-08-19T06:27:51;31.10;;;20.38;;
53718;SDS011;39616;48.872;9.390;2022-08-19T06:30:22;30.33;;;19.85;;
53718;SDS011;39616;48.872;9.390;2022-08-19T06:32:53;29.75;;;19.83;;
53718;SDS011;39616;48.872;9.390;2022-08-19T06:35:23;30.67;;;20.55;;
53718;SDS011;39616;48.872;9.390;2022-08-19T06:37:55;32.00;;;20.35;;
53718;SDS011;39616;48.872;9.390;2022-08-19T06:40:25;31.73;;;19.88;;
53718;SDS011;39616;48.872;9.390;2022-08-19T06:42:57;31.73;;;21.30;;
53718;SDS011;39616;48.872;9.390;2022-08-19T06:45:29;27.15;;;19.42;;
53718;SDS011;39616;48.872;9.390;2022-08-19T06:48:00;28.85;;;20.90;;
53718;SDS011;39616;48.872;9.390;2022-08-19T06:50:30;31.13;;;21.20;;
53718;SDS011;39616;48.872;9.390;2022-08-19T06:53:01;31.35;;;20.63;;
53718;SDS011;39616;48.872;9.390;2022-08-19T06:55:32;28.67;;;19.38;;
53718;SDS011;39616;48.872;9.390;2022-08-19T06:58:03;29.33;;;21.00;;
53718;SDS011;39616;48.872;9.390;2022-08-19T07:00:34;30.67;;;20.95;;
53718;SDS011;39616;48.872;9.390;2022-08-19T07:03:06;31.92;;;20.88;;
53718;SDS011;39616;48.872;9.390;2022-08-19T07:05:38;31.35;;;20.77;;
53718;SDS011;39616;48.872;9.390;2022-08-19T07:08:09;30.38;;;20.73;;
53718;SDS011;39616;48.872;9.390;2022-08-19T07:10:44;34.88;;;21.85;;
53718;SDS011;39616;48.872;9.390;2022-08-19T07:13:15;38.20;;;20.90;;
53718;SDS011;39616;48.872;9.390;2022-08-19T07:15:46;33.75;;;21.73;;
53718;SDS011;39616;48.872;9.390;2022-08-19T07:18:17;32.70;;;21.92;;
53718;SDS011;39616;48.872;9.390;2022-08-19T07:20:49;36.08;;;22.08;;
53718;SDS011;39616;48.872;9.390;2022-08-19T07:23:20;32.20;;;21.45;;
53718;SDS011;39616;48.872;9.390;2022-08-19T07:25:50;33.05;;;22.33;;
53718;SDS011;39616;48.872;9.390;2022-08-19T07:28:20;35.50;;;23.02;;
53718;SDS011;39616;48.872;9.390;2022-08-19T07:30:52;38.25;;;23.40;;
53718;SDS011;39616;48.872;9.390;2022-08-19T07:33:22;38.22;;;24.30;;
53718;SDS011;39616;48.872;9.390;2022-08-19T07:35:53;33.17;;;23.30;;
53718;SDS011;39616;48.872;9.390;2022-08-19T07:38:24;37.92;;;25.77;;
53718;SDS011;39616;48.872;9.390;2022-08-19T07:40:54;33.50;;;21.95;;
53718;SDS011;39616;48.872;9.390;2022-08-19T07:43:25;35.95;;;20.92;;
53718;SDS011;39616;48.872;9.390;2022-08-19T07:45:56;34.53;;;22.27;;
53718;SDS011;39616;48.872;9.390;2022-08-19T07:48:27;30.17;;;20.35;;
53718;SDS011;39616;48.872;9.390;2022-08-19T07:50:59;35.35;;;20.13;;
53718;SDS011;39616;48.872;9.390;2022-08-19T07:53:33;29.65;;;19.80;;
53718;SDS011;39616;48.872;9.390;2022-08-19T07:56:06;33.47;;;20.83;;
53718;SDS011;39616;48.872;9.390;2022-08-19T07:58:38;28.42;;;19.90;;
53718;SDS011;39616;48.872;9.390;2022-08-19T08:01:11;34.83;;;21.35;;
53718;SDS011;39616;48.872;9.390;2022-08-19T08:03:56;37.40;;;20.35;;
53718;SDS011;39616;48.872;9.390;2022-08-19T08:06:51;32.38;;;20.60;;
53718;SDS011;39616;48.872;9.390;2022-08-19T08:09:41;31.25;;;20.38;;
53718;SDS011;39616;48.872;9.390;2022-08-19T08:12:15;28.30;;;18.67;;
53718;SDS011;39616;48.872;9.390;2022-08-19T08:14:49;35.20;;;20.17;;
53718;SDS011;39616;48.872;9.390;2022-08-19T08:17:22;31.73;;;19.00;;
53718;SDS011;39616;48.872;9.390;2022-08-19T08:19:55;32.85;;;19.63;;
53718;SDS011;39616;48.872;9.390;2022-08-19T08:22:25;32.15;;;19.35;;
53718;SDS011;39616;48.872;9.390;2022-08-19T08:25:16;30.77;;;19.48;;
53718;SDS011;39616;48.872;9.390;2022-08-19T08:27:49;27.83;;;18.98;;
53718;SDS011;39616;48.872;9.390;2022-08-19T08:30:21;29.27;;;19.13;;
53718;SDS011;39616;48.872;9.390;2022-08-19T08:32:53;33.70;;;18.98;;
53718;SDS011;39616;48.872;9.390;2022-08-19T08:35:24;31.00;;;19.00;;
53718;SDS011;39616;48.872;9.390;2022-08-19T08:37:55;25.55;;;17.63;;
53718;SDS011;39616;48.872;9.390;2022-08-19T08:40:27;26.40;;;17.77;;
53718;SDS011;39616;48.872;9.390;2022-08-19T08:43:09;28.73;;;18.10;;
53718;SDS011;39616;48.872;9.390;2022-08-19T08:46:13;25.35;;;16.08;;
53718;SDS011;39616;48.872;9.390;2022-08-19T08:49:01;30.23;;;18.25;;
53718;SDS011;39616;48.872;9.390;2022-08-19T08:51:56;32.58;;;20.05;;
53718;SDS011;39616;48.872;9.390;2022-08-19T08:54:49;34.57;;;19.57;;
53718;SDS011;39616;48.872;9.390;2022-08-19T08:57:27;36.05;;;19.88;;
53718;SDS011;39616;48.872;9.390;2022-08-19T09:02:30;36.70;;;19.67;;
53718;SDS011;39616;48.872;9.390;2022-08-19T09:05:00;38.03;;;20.80;;
53718;SDS011;39616;48.872;9.390;2022-08-19T09:10:31;28.88;;;19.98;;
53718;SDS011;39616;48.872;9.390;2022-08-19T09:13:06;30.05;;;20.15;;
53718;SDS011;39616;48.872;9.390;2022-08-19T09:15:46;33.42;;;20.40;;
53718;SDS011;39616;48.872;9.390;2022-08-19T09:18:21;28.13;;;20.55;;
53718;SDS011;39616;48.872;9.390;2022-08-19T09:20:51;35.10;;;20.85;;
53718;SDS011;39616;48.872;9.390;2022-08-19T09:23:22;34.17;;;20.83;;
53718;SDS011;39616;48.872;9.390;2022-08-19T09:25:53;31.23;;;19.48;;
53718;SDS011;39616;48.872;9.390;2022-08-19T09:28:24;34.40;;;20.35;;
53718;SDS011;39616;48.872;9.390;2022-08-19T09:30:54;29.40;;;20.75;;
53718;SDS011;39616;48.872;9.390;2022-08-19T09:33:24;29.48;;;19.75;;
53718;SDS011;39616;48.872;9.390;2022-08-19T09:36:03;28.20;;;19.45;;
53718;SDS011;39616;48.872;9.390;2022-08-19T09:38:38;35.85;;;20.77;;
53718;SDS011;39616;48.872;9.390;2022-08-19T09:41:14;33.50;;;20.17;;
53718;SDS011;39616;48.872;9.390;2022-08-19T09:43:47;29.42;;;19.40;;
53718;SDS011;39616;48.872;9.390;2022-08-19T09:46:22;29.63;;;19.55;;
53718;SDS011;39616;48.872;9.390;2022-08-19T09:48:54;32.95;;;20.70;;
53718;SDS011;39616;48.872;9.390;2022-08-19T09:51:26;32.13;;;19.58;;
53718;SDS011;39616;48.872;9.390;2022-08-19T09:53:59;28.83;;;19.00;;
53718;SDS011;39616;48.872;9.390;2022-08-19T09:56:31;27.42;;;19.08;;
53718;SDS011;39616;48.872;9.390;2022-08-19T09:59:02;30.02;;;19.83;;
53718;SDS011;39616;48.872;9.390;2022-08-19T10:01:33;29.63;;;18.98;;
53718;SDS011;39616;48.872;9.390;2022-08-19T10:04:04;33.78;;;21.35;;
53718;SDS011;39616;48.872;9.390;2022-08-19T10:06:40;34.58;;;20.55;;
53718;SDS011;39616;48.872;9.390;2022-08-19T10:09:12;34.42;;;21.95;;
53718;SDS011;39616;48.872;9.390;2022-08-19T10:11:44;33.65;;;22.92;;
53718;SDS011;39616;48.872;9.390;2022-08-19T10:14:19;32.75;;;22.52;;
53718;SDS011;39616;48.872;9.390;2022-08-19T10:16:52;40.08;;;23.50;;
53718;SDS011;39616;48.872;9.390;2022-08-19T10:19:22;36.88;;;24.95;;
53718;SDS011;39616;48.872;9.390;2022-08-19T10:21:53;34.05;;;23.42;;
53718;SDS011;39616;48.872;9.390;2022-08-19T10:24:24;39.92;;;25.20;;
53718;SDS011;39616;48.872;9.390;2022-08-19T10:26:55;34.28;;;22.98;;
53718;SDS011;39616;48.872;9.390;2022-08-19T10:29:27;39.38;;;25.55;;
53718;SDS011;39616;48.872;9.390;2022-08-19T10:31:58;39.25;;;26.20;;
53718;SDS011;39616;48.872;9.390;2022-08-19T10:34:30;46.08;;;27.73;;
53718;SDS011;39616;48.872;9.390;2022-08-19T10:37:00;38.60;;;24.73;;
53718;SDS011;39616;48.872;9.390;2022-08-19T10:39:31;41.22;;;23.17;;
53718;SDS011;39616;48.872;9.390;2022-08-19T10:42:04;39.38;;;26.33;;
53718;SDS011;39616;48.872;9.390;2022-08-19T10:44:36;36.65;;;24.35;;
53718;SDS011;39616;48.872;9.390;2022-08-19T10:47:07;35.65;;;23.02;;
53718;SDS011;39616;48.872;9.390;2022-08-19T10:49:37;36.65;;;23.98;;
53718;SDS011;39616;48.872;9.390;2022-08-19T10:52:27;34.05;;;22.60;;
53718;SDS011;39616;48.872;9.390;2022-08-19T10:55:05;35.65;;;24.88;;
53718;SDS011;39616;48.872;9.390;2022-08-19T10:57:55;35.33;;;24.83;;
53718;SDS011;39616;48.872;9.390;2022-08-19T11:00:27;34.78;;;23.45;;
53718;SDS011;39616;48.872;9.390;2022-08-19T11:02:57;34.42;;;23.77;;
53718;SDS011;39616;48.872;9.390;2022-08-19T11:14:16;37.78;;;25.27;;
53718;SDS011;39616;48.872;9.390;2022-08-19T11:16:51;41.63;;;25.92;;
53718;SDS011;39616;48.872;9.390;2022-08-19T11:19:25;35.70;;;23.13;;
53718;SDS011;39616;48.872;9.390;2022-08-19T11:21:55;36.42;;;24.58;;
53718;SDS011;39616;48.872;9.390;2022-08-19T11:24:26;37.17;;;24.52;;
53718;SDS011;39616;48.872;9.390;2022-08-19T11:27:00;35.88;;;23.92;;
53718;SDS011;39616;48.872;9.390;2022-08-19T11:29:35;39.05;;;24.60;;
53718;SDS011;39616;48.872;9.390;2022-08-19T11:32:08;34.33;;;22.70;;
53718;SDS011;39616;48.872;9.390;2022-08-19T11:34:40;36.30;;;23.88;;
53718;SDS011;39616;48.872;9.390;2022-08-19T11:37:11;32.05;;;21.70;;
53718;SDS011;39616;48.872;9.390;2022-08-19T11:39:41;34.58;;;23.42;;
53718;SDS011;39616;48.872;9.390;2022-08-19T11:42:11;35.65;;;23.55;;
53718;SDS011;39616;48.872;9.390;2022-08-19T11:45:00;32.28;;;22.80;;
53718;SDS011;39616;48.872;9.390;2022-08-19T11:47:32;40.60;;;22.67;;
53718;SDS011;39616;48.872;9.390;2022-08-19T11:50:03;32.13;;;23.25;;
53718;SDS011;39616;48.872;9.390;2022-08-19T11:52:35;35.13;;;23.15;;
53718;SDS011;39616;48.872;9.390;2022-08-19T11:55:09;33.35;;;23.33;;
53718;SDS011;39616;48.872;9.390;2022-08-19T11:57:40;35.75;;;21.73;;
53718;SDS011;39616;48.872;9.390;2022-08-19T12:00:12;37.90;;;24.23;;
53718;SDS011;39616;48.872;9.390;2022-08-19T12:02:43;33.70;;;22.70;;
53718;SDS011;39616;48.872;9.390;2022-08-19T12:05:14;32.92;;;22.45;;
53718;SDS011;39616;48.872;9.390;2022-08-19T12:07:44;34.25;;;24.02;;
53718;SDS011;39616;48.872;9.390;2022-08-19T12:10:14;36.35;;;24.30;;
53718;SDS011;39616;48.872;9.390;2022-08-19T12:12:45;32.45;;;21.65;;
53718;SDS011;39616;48.872;9.390;2022-08-19T12:15:16;33.78;;;23.20;;
53718;SDS011;39616;48.872;9.390;2022-08-19T12:17:46;35.78;;;23.98;;
53718;SDS011;39616;48.872;9.390;2022-08-19T12:20:16;29.20;;;21.90;;
53718;SDS011;39616;48.872;9.390;2022-08-19T12:22:47;34.47;;;22.25;;
53718;SDS011;39616;48.872;9.390;2022-08-19T12:25:18;36.20;;;22.27;;
53718;SDS011;39616;48.872;9.390;2022-08-19T12:27:48;34.83;;;23.00;;
53718;SDS011;39616;48.872;9.390;2022-08-19T12:30:19;35.55;;;23.95;;
53718;SDS011;39616;48.872;9.390;2022-08-19T12:32:50;34.60;;;23.75;;
53718;SDS011;39616;48.872;9.390;2022-08-19T12:35:21;38.80;;;24.58;;
53718;SDS011;39616;48.872;9.390;2022-08-19T12:37:51;35.97;;;22.65;;
53718;SDS011;39616;48.872;9.390;2022-08-19T12:40:22;35.40;;;23.98;;
53718;SDS011;39616;48.872;9.390;2022-08-19T12:42:53;29.65;;;22.52;;
53718;SDS011;39616;48.872;9.390;2022-08-19T12:45:24;29.15;;;20.77;;
53718;SDS011;39616;48.872;9.390;2022-08-19T12:47:55;32.28;;;21.27;;
53718;SDS011;39616;48.872;9.390;2022-08-19T12:50:25;28.40;;;19.88;;
53718;SDS011;39616;48.872;9.390;2022-08-19T12:52:55;30.40;;;20.50;;
53718;SDS011;39616;48.872;9.390;2022-08-19T12:55:26;26.23;;;20.20;;
53718;SDS011;39616;48.872;9.390;2022-08-19T12:57:58;29.23;;;19.73;;
53718;SDS011;39616;48.872;9.390;2022-08-19T13:00:31;27.92;;;19.15;;
53718;SDS011;39616;48.872;9.390;2022-08-19T13:03:05;27.63;;;18.05;;
53718;SDS011;39616;48.872;9.390;2022-08-19T13:05:35;27.25;;;19.30;;
53718;SDS011;39616;48.872;9.390;2022-08-19T13:08:05;26.88;;;18.90;;
53718;SDS011;39616;48.872;9.390;2022-08-19T13:10:36;23.45;;;18.33;;
53718;SDS011;39616;48.872;9.390;2022-08-19T13:13:07;24.15;;;18.50;;
53718;SDS011;39616;48.872;9.390;2022-08-19T13:15:40;28.50;;;19.13;;
53718;SDS011;39616;48.872;9.390;2022-08-19T13:18:12;22.70;;;17.52;;
53718;SDS011;39616;48.872;9.390;2022-08-19T13:20:44;24.90;;;19.00;;
53718;SDS011;39616;48.872;9.390;2022-08-19T13:23:14;30.58;;;18.20;;
53718;SDS011;39616;48.872;9.390;2022-08-19T13:25:54;25.63;;;17.73;;
53718;SDS011;39616;48.872;9.390;2022-08-19T13:28:25;25.73;;;18.20;;
53718;SDS011;39616;48.872;9.390;2022-08-19T13:30:56;29.60;;;18.73;;
53718;SDS011;39616;48.872;9.390;2022-08-19T13:33:45;30.60;;;19.60;;
53718;SDS011;39616;48.872;9.390;2022-08-19T13:36:15;26.50;;;19.70;;
53718;SDS011;39616;48.872;9.390;2022-08-19T13:38:45;22.05;;;17.02;;
53718;SDS011;39616;48.872;9.390;2022-08-19T13:41:16;26.38;;;18.17;;
53718;SDS011;39616;48.872;9.390;2022-08-19T13:43:48;23.50;;;17.73;;
53718;SDS011;39616;48.872;9.390;2022-08-19T13:46:19;25.33;;;17.65;;
53718;SDS011;39616;48.872;9.390;2022-08-19T13:48:49;28.67;;;19.13;;
53718;SDS011;39616;48.872;9.390;2022-08-19T13:51:20;26.75;;;19.10;;
53718;SDS011;39616;48.872;9.390;2022-08-19T13:53:50;26.25;;;19.17;;
53718;SDS011;39616;48.872;9.390;2022-08-19T13:56:21;29.30;;;19.77;;
53718;SDS011;39616;48.872;9.390;2022-08-19T13:58:52;28.95;;;20.20;;
53718;SDS011;39616;48.872;9.390;2022-08-19T14:01:23;27.88;;;20.98;;
53718;SDS011;39616;48.872;9.390;2022-08-19T14:03:54;32.08;;;20.35;;
53718;SDS011;39616;48.872;9.390;2022-08-19T14:06:24;27.63;;;19.25;;
53718;SDS011;39616;48.872;9.390;2022-08-19T14:08:55;29.00;;;18.95;;
53718;SDS011;39616;48.872;9.390;2022-08-19T14:11:25;24.90;;;18.40;;
53718;SDS011;39616;48.872;9.390;2022-08-19T14:13:57;25.10;;;18.17;;
53718;SDS011;39616;48.872;9.390;2022-08-19T14:16:27;28.08;;;18.50;;
53718;SDS011;39616;48.872;9.390;2022-08-19T14:18:57;29.05;;;18.77;;
53718;SDS011;39616;48.872;9.390;2022-08-19T14:21:28;27.92;;;19.08;;
53718;SDS011;39616;48.872;9.390;2022-08-19T14:23:58;27.38;;;18.83;;
53718;SDS011;39616;48.872;9.390;2022-08-19T14:26:28;29.23;;;17.58;;
53718;SDS011;39616;48.872;9.390;2022-08-19T14:28:59;27.27;;;17.58;;
53718;SDS011;39616;48.872;9.390;2022-08-19T14:31:31;27.60;;;18.88;;
53718;SDS011;39616;48.872;9.390;2022-08-19T14:34:01;26.83;;;19.48;;
53718;SDS011;39616;48.872;9.390;2022-08-19T14:36:31;30.13;;;19.15;;
53718;SDS011;39616;48.872;9.390;2022-08-19T14:39:04;26.90;;;18.17;;
53718;SDS011;39616;48.872;9.390;2022-08-19T14:41:35;30.55;;;19.10;;
53718;SDS011;39616;48.872;9.390;2022-08-19T14:44:05;27.55;;;19.27;;
53718;SDS011;39616;48.872;9.390;2022-08-19T14:46:36;24.92;;;18.92;;
53718;SDS011;39616;48.872;9.390;2022-08-19T14:49:06;30.73;;;20.13;;
53718;SDS011;39616;48.872;9.390;2022-08-19T14:51:37;27.63;;;20.60;;
53718;SDS011;39616;48.872;9.390;2022-08-19T14:54:08;28.55;;;20.50;;
53718;SDS011;39616;48.872;9.390;2022-08-19T14:56:39;33.83;;;21.10;;
53718;SDS011;39616;48.872;9.390;2022-08-19T14:59:10;33.33;;;23.40;;
53718;SDS011;39616;48.872;9.390;2022-08-19T15:01:41;33.22;;;22.05;;
53718;SDS011;39616;48.872;9.390;2022-08-19T15:04:11;30.48;;;22.08;;